Gillette, WY (82716)

7:46 PM MDT on August 26, 2016 (GMT -0600)
Gillette-Campbell County | | Change Station

Elev 4364 ft 44.34 °N, 105.54 °W | Updated 53 minutes ago

Clear
Clear
67 °F
Feels Like 67 °F
N
7
Wind Variable Wind from ENE

Today
High -- | Low -- °F
--% Chance of Precip.
Yesterday
High -- | Low -- °F
Precip. -- in
Pressure 29.93 in
Visibility 10.0 miles
Clouds Clear
Dew Point 44 °F
Humidity 44%
Rainfall 0.00 in
Snow Depth Not available.
6:18 AM 7:48 PM
Waning Crescent, 29% visible
METAR KGCC 270053Z AUTO 07006KT 10SM CLR 19/07 A3001 RMK AO2 SLP133 T01940067
Pressure 29.93 in
Visibility 10.0 miles
Clouds Clear
Dew Point 44 °F
Humidity 44%
Rainfall 0.00 in
Snow Depth Not available.
6:18 AM 7:48 PM
Waning Crescent, 29% visible
METAR KGCC 270053Z AUTO 07006KT 10SM CLR 19/07 A3001 RMK AO2 SLP133 T01940067

10-Day Weather Forecast

Almanac

Astronomy

Aug. 26, 2016 Rise Set
Actual Time
Civil Twilight
Nautical Twilight
Astronomical Twilight
Moon
Length of Visible Light
Length of Day
Tomorrow will be .
, % of the Moon is Illuminated

Today's Extremes

State Highs State Lows

Community

WunderPhotos

Upload Photos

1,935,268 photos uploaded!

WunderBlog® & News

Nearby

Air Quality

  Air Quality AQ Index Pollutant
Not available.

Snow Depth

Station Depth Elevation

Earthquake Activity

City Distance Mag. Time & Date
Minimum magnitude displayed is 2.5.

Coastal Water Temperatures

Place Temperature

Stations

Nearby Weather Stations

Station Location Temp. Windchill Dew Point Humidity Wind Precip. Elev Updated Type
                   

Watches & Warnings

There are currently no watches in effect.